Yeoman Bank — ELOG5 — position and weather

sailwx.info

Track history (hours):
 
Tides and Currents Weather Stations Pressure Air Temp Water Temp Dewpoint Dewpoint Depression Visibility Wind Speed Wind Dir Waves Ship Positions

Yeoman Bank

Last reported at 2017-Nov-18 18:00 UTC. Time now 2017-Nov-18 19:09 UTC.
Position N 35°59' W 005°15'.

Length 205 m; draft 6.2 m.

Type: Cargo ship. MMSI: 636009548.

Date/timePositionNaut miles runAvg speedWind from/ knotsBaromVisibWave heightAir tempDewpointWater temp
2017-Nov-18 18:00N 35°59' W 005°15'611.7
2017-Nov-18 17:30N 35°58' W 005°22'610.9
2017-Nov-18 16:55N 35°57' W 005°30'17912.7
2017-Nov-18 02:50N 36°31' W 009°07'514.0
2017-Nov-18 02:30N 36°33' W 009°13'813.5
2017-Nov-18 01:55N 36°36' W 009°22'614.0
2017-Nov-18 01:30N 36°41' W 009°26'714.8
2017-Nov-18 01:00N 36°47' W 009°32'714.3
2017-Nov-18 00:30N 36°53' W 009°35'714.5
2017-Nov-18 00:00N 37°00' W 009°38'714.7
2017-Nov-17 23:31N 37°07' W 009°40'714.5
2017-Nov-17 23:00N 37°14' W 009°42'714.4
2017-Nov-17 22:30N 37°21' W 009°44'814.7
2017-Nov-17 21:58N 37°29' W 009°46'715.0
2017-Nov-17 21:30N 37°36' W 009°47'714.9
2017-Nov-17 21:00N 37°43' W 009°48'714.9
2017-Nov-17 20:30N 37°51' W 009°50'714.7
2017-Nov-17 20:00N 37°58' W 009°53'714.9
2017-Nov-17 19:30N 38°05' W 009°55'815.0
2017-Nov-17 19:00N 38°12' W 009°58'815.1
2017-Nov-17 18:30N 38°19' W 010°00'714.7
2017-Nov-17 18:00N 38°27' W 010°03'714.4
2017-Nov-17 17:31N 38°34' W 010°05'714.2
2017-Nov-17 17:00N 38°40' W 010°07'714.0
2017-Nov-17 16:30N 38°47' W 010°08'714.4
2017-Nov-17 16:00N 38°55' W 010°08'714.9
2017-Nov-17 15:30N 39°02' W 010°07'714.5
2017-Nov-17 15:00N 39°09' W 010°08'714.7
2017-Nov-17 14:30N 39°17' W 010°08'714.9
2017-Nov-17 14:00N 39°24' W 010°08'14014.7
2017-Nov-17 04:30N 41°44' W 010°07'33314.1
2017-Nov-16 04:52N 46°55' W 007°22'612.4
2017-Nov-16 04:24N 47°00' W 007°18'711.0
2017-Nov-16 03:44N 47°07' W 007°13'311.9
2017-Nov-16 03:30N 47°09' W 007°11'713.1
2017-Nov-16 03:00N 47°15' W 007°07'1115.7
2017-Nov-16 02:16N 47°25' W 006°58'3 9.4
2017-Nov-16 02:00N 47°27' W 006°57'913.6
2017-Nov-16 01:19N 47°36' W 006°52'513.1
2017-Nov-16 00:57N 47°40' W 006°49'1512.9
2017-Nov-15 23:46N 47°54' W 006°39'513.0
2017-Nov-15 23:22N 47°58' W 006°36'613.3
2017-Nov-15 22:55N 48°04' W 006°32'713.5
2017-Nov-15 22:25N 48°10' W 006°27'713.7
2017-Nov-15 21:53N 48°16' W 006°22'614.2
2017-Nov-15 21:27N 48°22' W 006°17'714.7
2017-Nov-15 21:00N 48°27' W 006°12'815.0
2017-Nov-15 20:30N 48°34' W 006°07'815.2
2017-Nov-15 19:59N 48°41' W 006°02'715.3
2017-Nov-15 19:30N 48°48' W 005°57'815.1
2017-Nov-15 19:00N 48°54' W 005°51'815.0
2017-Nov-15 18:30N 48°58' W 005°41'714.7
2017-Nov-15 18:00N 49°02' W 005°31'714.7
2017-Nov-15 17:30N 49°05' W 005°21'714.4
2017-Nov-15 17:00N 49°09' W 005°12'814.1
2017-Nov-15 16:27N 49°13' W 005°02'713.7
2017-Nov-15 15:57N 49°16' W 004°53'613.4
2017-Nov-15 15:28N 49°20' W 004°44'813.1
2017-Nov-15 14:51N 49°23' W 004°33'512.9
2017-Nov-15 14:25N 49°26' W 004°26'613.2
2017-Nov-15 13:58N 49°29' W 004°18'813.3
2017-Nov-15 13:20N 49°34' W 004°07'4814.8
2017-Nov-15 10:07N 49°57' W 003°03'215.3
2017-Nov-15 10:00N 49°58' W 003°01'815.2
2017-Nov-15 09:30N 50°00' W 002°49'2713.9
2017-Nov-15 07:34N 50°07' W 002°09'112.3
2017-Nov-15 07:30N 50°08' W 002°07'612.3
2017-Nov-15 07:00N 50°09' W 001°58'611.5
2017-Nov-15 06:30N 50°11' W 001°50'611.3
2017-Nov-15 06:00N 50°12' W 001°41'611.1
2017-Nov-15 05:30N 50°14' W 001°33'611.2
2017-Nov-15 05:00N 50°15' W 001°24'611.5
2017-Nov-15 04:30N 50°17' W 001°16'4114.1
2017-Nov-15 01:37N 50°28' W 000°14'215.3
2017-Nov-15 01:30N 50°28' W 000°11'815.3
2017-Nov-15 01:00N 50°30' E 000°00'815.4
2017-Nov-15 00:30N 50°33' E 000°12'815.2
2017-Nov-15 00:00N 50°35' E 000°23'714.7
2017-Nov-14 23:30N 50°37' E 000°34'714.5
2017-Nov-14 23:00N 50°42' E 000°43'714.0
2017-Nov-14 22:30N 50°46' E 000°53'813.0
2017-Nov-14 21:53N 50°50' E 001°03'911.2
2017-Nov-14 21:06N 50°56' E 001°13'7 9.1
2017-Nov-14 20:18N 51°01' E 001°21'3 9.3
2017-Nov-14 20:00N 51°03' E 001°25'510.0
2017-Nov-14 19:30N 51°06' E 001°31'510.9
2017-Nov-14 19:00N 51°10' E 001°38'611.5
2017-Nov-14 18:30N 51°13' E 001°45'612.2
2017-Nov-14 18:00N 51°18' E 001°50'612.5
2017-Nov-14 17:30N 51°24' E 001°55'714.2
2017-Nov-14 17:01N 51°29' E 002°02'815.7
2017-Nov-14 16:31N 51°36' E 002°10'1015.3
2017-Nov-14 15:51N 51°43' E 002°20'514.8
2017-Nov-14 15:30N 51°47' E 002°25'714.3
2017-Nov-14 15:00N 51°53' E 002°33'7112.7
2017-Nov-14 09:23N 52°49' E 003°44'513.1
2017-Nov-14 08:58N 52°54' E 003°49'612.9
2017-Nov-14 08:28N 52°58' E 003°58'613.2
2017-Nov-14 08:00N 53°01' E 004°06'713.3
2017-Nov-14 07:30N 53°06' E 004°14'713.3
2017-Nov-14 06:58N 53°11' E 004°23'137 4.7
2017-Nov-13 02:00N 53°32' E 008°09'0 0.0
2017-Nov-13 01:30N 53°32' E 008°09'0 0.0
2017-Nov-13 01:00N 53°32' E 008°09'0 0.0
2017-Nov-13 00:30N 53°32' E 008°09'0 0.0
2017-Nov-13 00:00N 53°32' E 008°09'0 0.0
2017-Nov-12 23:30N 53°32' E 008°09'0 0.0
2017-Nov-12 23:00N 53°32' E 008°09'0 0.0
2017-Nov-12 22:30N 53°32' E 008°09'0 0.0
2017-Nov-12 21:57N 53°32' E 008°09'0 0.0
2017-Nov-12 21:27N 53°32' E 008°09'0 0.0
2017-Nov-12 21:00N 53°32' E 008°09'0 0.0
2017-Nov-12 20:30N 53°32' E 008°09'0 0.0
2017-Nov-12 20:00N 53°32' E 008°09'0 0.2
2017-Nov-12 19:30N 53°32' E 008°09'0 0.7
2017-Nov-12 19:00N 53°32' E 008°10'0 0.5
2017-Nov-12 18:30N 53°32' E 008°10'2 4.8
2017-Nov-12 18:00N 53°34' E 008°10'3 6.7
2017-Nov-12 17:30N 53°38' E 008°09'4 9.0
2017-Nov-12 17:00N 53°41' E 008°05'4 7.7
2017-Nov-12 16:30N 53°45' E 008°03'510.5
2017-Nov-12 16:00N 53°49' E 007°57'8 9.0
2017-Nov-12 15:06N 53°53' E 007°45'0 3.5
2017-Nov-12 14:58N 53°53' E 007°44'44910.4
2017-Nov-10 19:59N 58°33' W 002°47'611.9
2017-Nov-10 19:29N 58°37' W 002°55'4 9.0
2017-Nov-10 19:00N 58°41' W 002°60'4 7.7
2017-Nov-10 18:30N 58°43' W 003°06'4 7.4
2017-Nov-10 18:00N 58°43' W 003°13'510.7
2017-Nov-10 17:30N 58°42' W 003°23'611.7
2017-Nov-10 17:00N 58°42' W 003°35'612.2
2017-Nov-10 16:30N 58°42' W 003°46'612.6
2017-Nov-10 16:00N 58°42' W 003°58'4211.5
2017-Nov-10 12:22N 58°30' W 005°15'121 8.8
2017-Nov-09 22:33N 56°29' W 005°40'1 9.2
2017-Nov-09 22:29N 56°29' W 005°39'4 9.2
2017-Nov-09 22:00N 56°32' W 005°33'2 4.1
2017-Nov-09 21:30N 56°34' W 005°32'0 0.1
2017-Nov-09 20:58N 56°34' W 005°32'0 0.0
2017-Nov-09 20:28N 56°34' W 005°32'0 0.0
2017-Nov-09 19:58N 56°34' W 005°32'0 0.0
2017-Nov-09 19:25N 56°34' W 005°32'0 0.0
2017-Nov-09 18:58N 56°34' W 005°32'0 0.0
2017-Nov-09 18:25N 56°34' W 005°32'0 0.0
2017-Nov-09 17:58N 56°34' W 005°32'0 0.0
2017-Nov-09 17:28N 56°34' W 005°32'0 0.0
2017-Nov-09 16:58N 56°34' W 005°32'0 0.0
2017-Nov-09 16:28N 56°34' W 005°32'0 0.0
2017-Nov-09 15:58N 56°34' W 005°32'0 0.0
2017-Nov-09 15:22N 56°34' W 005°32'0 0.0
2017-Nov-09 14:58N 56°34' W 005°32'0 0.0
2017-Nov-09 14:28N 56°34' W 005°32'0 0.0
2017-Nov-09 13:55N 56°34' W 005°32'0 0.0
2017-Nov-09 13:28N 56°34' W 005°32'0 0.0
2017-Nov-09 12:58N 56°34' W 005°32'0 0.0
2017-Nov-09 12:28N 56°34' W 005°32'0 0.0
2017-Nov-09 11:58N 56°34' W 005°32'0 0.0
2017-Nov-09 11:28N 56°34' W 005°32'0 0.0
2017-Nov-09 10:58N 56°34' W 005°32'0 0.0
2017-Nov-09 10:25N 56°34' W 005°32'0 0.0
2017-Nov-09 09:58N 56°34' W 005°32'0 0.0
2017-Nov-09 09:28N 56°34' W 005°32'1 1.5
2017-Nov-09 09:01N 56°34' W 005°31'4 7.1
2017-Nov-09 08:30N 56°31' W 005°34'510.9
2017-Nov-09 08:00N 56°26' W 005°38'610.9
2017-Nov-09 07:30N 56°21' W 005°42'4412.4
2017-Nov-09 03:56N 55°48' W 006°35'613.5
2017-Nov-09 03:30N 55°43' W 006°38'611.7
2017-Nov-09 03:00N 55°37' W 006°35'612.0
2017-Nov-09 02:30N 55°33' W 006°27'611.7
2017-Nov-09 02:01N 55°29' W 006°19'611.0
2017-Nov-09 01:30N 55°26' W 006°11'510.4
2017-Nov-09 01:01N 55°24' W 006°03'510.1
2017-Nov-09 00:28N 55°19' W 005°57'5 9.8
2017-Nov-09 00:00N 55°16' W 005°53'510.2
2017-Nov-08 23:30N 55°11' W 005°48'1411.6
2017-Nov-08 22:15N 54°59' W 005°34'312.4
2017-Nov-08 22:00N 54°57' W 005°31'612.8
2017-Nov-08 21:31N 54°51' W 005°25'713.2
2017-Nov-08 21:00N 54°45' W 005°20'713.7
2017-Nov-08 20:31N 54°39' W 005°15'714.1
2017-Nov-08 20:00N 54°32' W 005°13'714.5
2017-Nov-08 19:31N 54°25' W 005°09'714.5
2017-Nov-08 19:01N 54°19' W 005°04'  
Track history (hours):
 
Tides and Currents Weather Stations Pressure Air Temp Water Temp Dewpoint Dewpoint Depression Visibility Wind Speed Wind Dir Waves Ship Positions

Yeoman Bank

Last reported at 2017-Nov-18 18:00 UTC. Time now 2017-Nov-18 19:09 UTC.
Position N 35°59' W 005°15'.

Length 205 m; draft 6.2 m.

Type: Cargo ship. MMSI: 636009548.

Date/timePositionNaut miles runAvg speedWind from/ knotsBaromVisibWave heightAir tempDewpointWater temp
2017-Nov-18 18:00N 35°59' W 005°15'611.7
2017-Nov-18 17:30N 35°58' W 005°22'610.9
2017-Nov-18 16:55N 35°57' W 005°30'17912.7
2017-Nov-18 02:50N 36°31' W 009°07'514.0
2017-Nov-18 02:30N 36°33' W 009°13'813.5
2017-Nov-18 01:55N 36°36' W 009°22'614.0
2017-Nov-18 01:30N 36°41' W 009°26'714.8
2017-Nov-18 01:00N 36°47' W 009°32'714.3
2017-Nov-18 00:30N 36°53' W 009°35'714.5
2017-Nov-18 00:00N 37°00' W 009°38'714.7
2017-Nov-17 23:31N 37°07' W 009°40'714.5
2017-Nov-17 23:00N 37°14' W 009°42'714.4
2017-Nov-17 22:30N 37°21' W 009°44'814.7
2017-Nov-17 21:58N 37°29' W 009°46'715.0
2017-Nov-17 21:30N 37°36' W 009°47'714.9
2017-Nov-17 21:00N 37°43' W 009°48'714.9
2017-Nov-17 20:30N 37°51' W 009°50'714.7
2017-Nov-17 20:00N 37°58' W 009°53'714.9
2017-Nov-17 19:30N 38°05' W 009°55'815.0
2017-Nov-17 19:00N 38°12' W 009°58'815.1
2017-Nov-17 18:30N 38°19' W 010°00'714.7
2017-Nov-17 18:00N 38°27' W 010°03'714.4
2017-Nov-17 17:31N 38°34' W 010°05'714.2
2017-Nov-17 17:00N 38°40' W 010°07'714.0
2017-Nov-17 16:30N 38°47' W 010°08'714.4
2017-Nov-17 16:00N 38°55' W 010°08'714.9
2017-Nov-17 15:30N 39°02' W 010°07'714.5
2017-Nov-17 15:00N 39°09' W 010°08'714.7
2017-Nov-17 14:30N 39°17' W 010°08'714.9
2017-Nov-17 14:00N 39°24' W 010°08'14014.7
2017-Nov-17 04:30N 41°44' W 010°07'33314.1
2017-Nov-16 04:52N 46°55' W 007°22'612.4
2017-Nov-16 04:24N 47°00' W 007°18'711.0
2017-Nov-16 03:44N 47°07' W 007°13'311.9
2017-Nov-16 03:30N 47°09' W 007°11'713.1
2017-Nov-16 03:00N 47°15' W 007°07'1115.7
2017-Nov-16 02:16N 47°25' W 006°58'3 9.4
2017-Nov-16 02:00N 47°27' W 006°57'913.6
2017-Nov-16 01:19N 47°36' W 006°52'513.1
2017-Nov-16 00:57N 47°40' W 006°49'1512.9
2017-Nov-15 23:46N 47°54' W 006°39'513.0
2017-Nov-15 23:22N 47°58' W 006°36'613.3
2017-Nov-15 22:55N 48°04' W 006°32'713.5
2017-Nov-15 22:25N 48°10' W 006°27'713.7
2017-Nov-15 21:53N 48°16' W 006°22'614.2
2017-Nov-15 21:27N 48°22' W 006°17'714.7
2017-Nov-15 21:00N 48°27' W 006°12'815.0
2017-Nov-15 20:30N 48°34' W 006°07'815.2
2017-Nov-15 19:59N 48°41' W 006°02'715.3
2017-Nov-15 19:30N 48°48' W 005°57'815.1
2017-Nov-15 19:00N 48°54' W 005°51'815.0
2017-Nov-15 18:30N 48°58' W 005°41'714.7
2017-Nov-15 18:00N 49°02' W 005°31'714.7
2017-Nov-15 17:30N 49°05' W 005°21'714.4
2017-Nov-15 17:00N 49°09' W 005°12'814.1
2017-Nov-15 16:27N 49°13' W 005°02'713.7
2017-Nov-15 15:57N 49°16' W 004°53'613.4
2017-Nov-15 15:28N 49°20' W 004°44'813.1
2017-Nov-15 14:51N 49°23' W 004°33'512.9
2017-Nov-15 14:25N 49°26' W 004°26'613.2
2017-Nov-15 13:58N 49°29' W 004°18'813.3
2017-Nov-15 13:20N 49°34' W 004°07'4814.8
2017-Nov-15 10:07N 49°57' W 003°03'215.3
2017-Nov-15 10:00N 49°58' W 003°01'815.2
2017-Nov-15 09:30N 50°00' W 002°49'2713.9
2017-Nov-15 07:34N 50°07' W 002°09'112.3
2017-Nov-15 07:30N 50°08' W 002°07'612.3
2017-Nov-15 07:00N 50°09' W 001°58'611.5
2017-Nov-15 06:30N 50°11' W 001°50'611.3
2017-Nov-15 06:00N 50°12' W 001°41'611.1
2017-Nov-15 05:30N 50°14' W 001°33'611.2
2017-Nov-15 05:00N 50°15' W 001°24'611.5
2017-Nov-15 04:30N 50°17' W 001°16'4114.1
2017-Nov-15 01:37N 50°28' W 000°14'215.3
2017-Nov-15 01:30N 50°28' W 000°11'815.3
2017-Nov-15 01:00N 50°30' E 000°00'815.4
2017-Nov-15 00:30N 50°33' E 000°12'815.2
2017-Nov-15 00:00N 50°35' E 000°23'714.7
2017-Nov-14 23:30N 50°37' E 000°34'714.5
2017-Nov-14 23:00N 50°42' E 000°43'714.0
2017-Nov-14 22:30N 50°46' E 000°53'813.0
2017-Nov-14 21:53N 50°50' E 001°03'911.2
2017-Nov-14 21:06N 50°56' E 001°13'7 9.1
2017-Nov-14 20:18N 51°01' E 001°21'3 9.3
2017-Nov-14 20:00N 51°03' E 001°25'510.0
2017-Nov-14 19:30N 51°06' E 001°31'510.9
2017-Nov-14 19:00N 51°10' E 001°38'611.5
2017-Nov-14 18:30N 51°13' E 001°45'612.2
2017-Nov-14 18:00N 51°18' E 001°50'612.5
2017-Nov-14 17:30N 51°24' E 001°55'714.2
2017-Nov-14 17:01N 51°29' E 002°02'815.7
2017-Nov-14 16:31N 51°36' E 002°10'1015.3
2017-Nov-14 15:51N 51°43' E 002°20'514.8
2017-Nov-14 15:30N 51°47' E 002°25'714.3
2017-Nov-14 15:00N 51°53' E 002°33'7112.7
2017-Nov-14 09:23N 52°49' E 003°44'513.1
2017-Nov-14 08:58N 52°54' E 003°49'612.9
2017-Nov-14 08:28N 52°58' E 003°58'613.2
2017-Nov-14 08:00N 53°01' E 004°06'713.3
2017-Nov-14 07:30N 53°06' E 004°14'713.3
2017-Nov-14 06:58N 53°11' E 004°23'137 4.7
2017-Nov-13 02:00N 53°32' E 008°09'0 0.0
2017-Nov-13 01:30N 53°32' E 008°09'0 0.0
2017-Nov-13 01:00N 53°32' E 008°09'0 0.0
2017-Nov-13 00:30N 53°32' E 008°09'0 0.0
2017-Nov-13 00:00N 53°32' E 008°09'0 0.0
2017-Nov-12 23:30N 53°32' E 008°09'0 0.0
2017-Nov-12 23:00N 53°32' E 008°09'0 0.0
2017-Nov-12 22:30N 53°32' E 008°09'0 0.0
2017-Nov-12 21:57N 53°32' E 008°09'0 0.0
2017-Nov-12 21:27N 53°32' E 008°09'0 0.0
2017-Nov-12 21:00N 53°32' E 008°09'0 0.0
2017-Nov-12 20:30N 53°32' E 008°09'0 0.0
2017-Nov-12 20:00N 53°32' E 008°09'0 0.2
2017-Nov-12 19:30N 53°32' E 008°09'0 0.7
2017-Nov-12 19:00N 53°32' E 008°10'0 0.5
2017-Nov-12 18:30N 53°32' E 008°10'2 4.8
2017-Nov-12 18:00N 53°34' E 008°10'3 6.7
2017-Nov-12 17:30N 53°38' E 008°09'4 9.0
2017-Nov-12 17:00N 53°41' E 008°05'4 7.7
2017-Nov-12 16:30N 53°45' E 008°03'510.5
2017-Nov-12 16:00N 53°49' E 007°57'8 9.0
2017-Nov-12 15:06N 53°53' E 007°45'0 3.5
2017-Nov-12 14:58N 53°53' E 007°44'44910.4
2017-Nov-10 19:59N 58°33' W 002°47'611.9
2017-Nov-10 19:29N 58°37' W 002°55'4 9.0
2017-Nov-10 19:00N 58°41' W 002°60'4 7.7
2017-Nov-10 18:30N 58°43' W 003°06'4 7.4
2017-Nov-10 18:00N 58°43' W 003°13'510.7
2017-Nov-10 17:30N 58°42' W 003°23'611.7
2017-Nov-10 17:00N 58°42' W 003°35'612.2
2017-Nov-10 16:30N 58°42' W 003°46'612.6
2017-Nov-10 16:00N 58°42' W 003°58'4211.5
2017-Nov-10 12:22N 58°30' W 005°15'121 8.8
2017-Nov-09 22:33N 56°29' W 005°40'1 9.2
2017-Nov-09 22:29N 56°29' W 005°39'4 9.2
2017-Nov-09 22:00N 56°32' W 005°33'2 4.1
2017-Nov-09 21:30N 56°34' W 005°32'0 0.1
2017-Nov-09 20:58N 56°34' W 005°32'0 0.0
2017-Nov-09 20:28N 56°34' W 005°32'0 0.0
2017-Nov-09 19:58N 56°34' W 005°32'0 0.0
2017-Nov-09 19:25N 56°34' W 005°32'0 0.0
2017-Nov-09 18:58N 56°34' W 005°32'0 0.0
2017-Nov-09 18:25N 56°34' W 005°32'0 0.0
2017-Nov-09 17:58N 56°34' W 005°32'0 0.0
2017-Nov-09 17:28N 56°34' W 005°32'0 0.0
2017-Nov-09 16:58N 56°34' W 005°32'0 0.0
2017-Nov-09 16:28N 56°34' W 005°32'0 0.0
2017-Nov-09 15:58N 56°34' W 005°32'0 0.0
2017-Nov-09 15:22N 56°34' W 005°32'0 0.0
2017-Nov-09 14:58N 56°34' W 005°32'0 0.0
2017-Nov-09 14:28N 56°34' W 005°32'0 0.0
2017-Nov-09 13:55N 56°34' W 005°32'0 0.0
2017-Nov-09 13:28N 56°34' W 005°32'0 0.0
2017-Nov-09 12:58N 56°34' W 005°32'0 0.0
2017-Nov-09 12:28N 56°34' W 005°32'0 0.0
2017-Nov-09 11:58N 56°34' W 005°32'0 0.0
2017-Nov-09 11:28N 56°34' W 005°32'0 0.0
2017-Nov-09 10:58N 56°34' W 005°32'0 0.0
2017-Nov-09 10:25N 56°34' W 005°32'0 0.0
2017-Nov-09 09:58N 56°34' W 005°32'0 0.0
2017-Nov-09 09:28N 56°34' W 005°32'1 1.5
2017-Nov-09 09:01N 56°34' W 005°31'4 7.1
2017-Nov-09 08:30N 56°31' W 005°34'510.9
2017-Nov-09 08:00N 56°26' W 005°38'610.9
2017-Nov-09 07:30N 56°21' W 005°42'4412.4
2017-Nov-09 03:56N 55°48' W 006°35'613.5
2017-Nov-09 03:30N 55°43' W 006°38'611.7
2017-Nov-09 03:00N 55°37' W 006°35'612.0
2017-Nov-09 02:30N 55°33' W 006°27'611.7
2017-Nov-09 02:01N 55°29' W 006°19'611.0
2017-Nov-09 01:30N 55°26' W 006°11'510.4
2017-Nov-09 01:01N 55°24' W 006°03'510.1
2017-Nov-09 00:28N 55°19' W 005°57'5 9.8
2017-Nov-09 00:00N 55°16' W 005°53'510.2
2017-Nov-08 23:30N 55°11' W 005°48'1411.6
2017-Nov-08 22:15N 54°59' W 005°34'312.4
2017-Nov-08 22:00N 54°57' W 005°31'612.8
2017-Nov-08 21:31N 54°51' W 005°25'713.2
2017-Nov-08 21:00N 54°45' W 005°20'713.7
2017-Nov-08 20:31N 54°39' W 005°15'714.1
2017-Nov-08 20:00N 54°32' W 005°13'714.5
2017-Nov-08 19:31N 54°25' W 005°09'714.5
2017-Nov-08 19:01N 54°19' W 005°04'  

Dump ship's entire track history